Time;durP1;ratioP1;P1;durP2;ratioP2;P2;SDS_P1;SDS_P2;PMS_P1;PMS_P2;Temp;Humidity;BMP_temperature;BMP_pressure;BME280_temperature;BME280_humidity;BME280_pressure;Samples;Min_cycle;Max_cycle;Signal;HPM_P1;HPM_P2
2023/09/05 00:02:45;;;;;;;3.83;1.20;;;;;;;24.56;47.94;101447.84;5118581;28;20054;-82
2023/09/05 00:05:40;;;;;;;3.72;1.30;;;;;;;24.54;48.00;101442.69;5119756;28;20066;-82
2023/09/05 00:08:34;;;;;;;6.68;2.38;;;;;;;24.54;48.48;101439.91;5119079;28;20047;-82
2023/09/05 00:11:25;;;;;;;;;;;;;;;24.52;48.26;101439.50;5118452;28;20059;-82
2023/09/05 00:14:20;;;;;;;3.75;1.48;;;;;;;24.44;49.05;101439.84;5107082;28;19912;-82
2023/09/05 00:17:15;;;;;;;7.82;1.67;;;;;;;24.23;48.95;101429.44;5123293;28;20046;-82
2023/09/05 00:20:10;;;;;;;1.95;1.50;;;;;;;24.31;48.80;101435.84;5118924;28;20518;-81
2023/09/05 00:23:02;;;;;;;4.45;1.73;;;;;;;24.38;48.56;101419.22;5118775;28;20043;-82
2023/09/05 00:25:54;;;;;;;3.83;1.52;;;;;;;24.41;48.89;101427.56;5123065;28;20046;-82
2023/09/05 00:28:50;;;;;;;3.33;1.67;;;;;;;24.44;48.67;101421.19;5118611;28;20050;-82
2023/09/05 00:31:44;;;;;;;4.13;1.70;;;;;;;24.43;49.19;101414.03;5103465;28;20051;-82
2023/09/05 00:34:41;;;;;;;6.63;2.28;;;;;;;24.46;49.04;101421.59;5107874;28;20047;-82
2023/09/05 00:37:36;;;;;;;2.67;1.98;;;;;;;24.43;48.91;101414.03;5118889;28;20114;-83
2023/09/05 00:40:30;;;;;;;4.82;1.58;;;;;;;24.33;49.55;101405.69;5116827;28;20039;-82
2023/09/05 00:43:25;;;;;;;3.17;1.90;;;;;;;24.29;50.00;101411.22;5106176;28;20046;-83
2023/09/05 00:46:19;;;;;;;3.17;1.80;;;;;;;24.25;49.72;101402.06;5118035;28;20046;-82
2023/09/05 00:49:14;;;;;;;9.65;1.95;;;;;;;24.14;50.23;101407.56;5106210;28;20049;-82
2023/09/05 00:52:09;;;;;;;3.83;1.83;;;;;;;24.04;51.28;101402.75;5117548;28;20043;-83
2023/09/05 00:55:03;;;;;;;3.75;2.35;;;;;;;23.95;51.67;101401.50;5122967;28;20051;-83
2023/09/05 00:58:00;;;;;;;3.85;2.00;;;;;;;23.82;52.06;101392.72;5117596;28;20071;-83
2023/09/05 01:00:55;;;;;;;2.03;1.40;;;;;;;23.95;51.62;101395.97;5118047;28;20051;-83
2023/09/05 01:03:49;;;;;;;2.95;1.67;;;;;;;24.14;50.56;101399.22;5110015;28;20042;-84
2023/09/05 01:06:56;;;;;;;2.60;1.60;;;;;;;24.08;51.07;101400.78;5118881;28;20089;-83
2023/09/05 01:10:01;;;;;;;7.85;2.10;;;;;;;23.99;51.88;101396.75;5116888;28;20410;-81
2023/09/05 01:12:51;;;;;;;;;;;;;;;23.77;52.58;101391.09;5118907;28;20054;-82
2023/09/05 01:15:43;;;;;;;5.70;2.30;;;;;;;23.59;54.86;101386.63;5122523;28;20386;-82
2023/09/05 01:18:39;;;;;;;8.13;1.85;;;;;;;23.43;54.84;101392.44;5106022;28;20054;-84
2023/09/05 01:21:40;;;;;;;3.88;2.00;;;;;;;23.35;54.11;101388.03;5116714;28;20038;-82
2023/09/05 01:24:38;;;;;;;7.03;2.10;;;;;;;23.21;53.40;101385.16;5106924;28;20105;-82
2023/09/05 01:27:33;;;;;;;2.50;1.60;;;;;;;23.29;52.84;101386.78;5117299;28;20410;-82
2023/09/05 01:30:28;;;;;;;6.53;2.15;;;;;;;23.23;53.71;101385.56;5120035;28;20047;-82
2023/09/05 01:33:21;;;;;;;3.97;1.90;;;;;;;23.20;53.64;101381.59;5118994;28;20406;-81
2023/09/05 01:36:15;;;;;;;6.50;2.05;;;;;;;23.04;53.84;101386.59;5117499;28;20050;-81
2023/09/05 01:39:10;;;;;;;4.90;2.60;;;;;;;22.92;54.57;101396.00;5117903;28;20420;-82
2023/09/05 01:42:04;;;;;;;7.47;2.20;;;;;;;22.91;54.34;101391.63;5118534;28;20047;-82
2023/09/05 01:45:00;;;;;;;4.47;1.85;;;;;;;22.90;54.40;101392.03;5121832;28;20113;-81
2023/09/05 01:47:52;;;;;;;4.25;2.42;;;;;;;22.89;54.39;101388.47;5105004;28;20047;-82
2023/09/05 01:50:46;;;;;;;4.22;2.13;;;;;;;23.12;54.29;101393.00;5116703;28;20050;-82
2023/09/05 01:53:41;;;;;;;3.22;2.10;;;;;;;22.86;54.92;101394.75;5106394;28;20050;-82
2023/09/05 01:56:35;;;;;;;4.53;2.45;;;;;;;22.88;55.03;101389.63;5116495;28;20046;-82
2023/09/05 01:59:30;;;;;;;4.22;2.47;;;;;;;22.78;55.28;101393.09;5100857;28;20043;-81
2023/09/05 02:02:25;;;;;;;4.70;3.33;;;;;;;22.86;55.88;101397.53;5113532;28;20043;-81
2023/09/05 02:05:17;;;;;;;5.90;3.33;;;;;;;23.02;55.12;101394.50;5096808;28;20047;-82
2023/09/05 02:08:12;;;;;;;5.50;2.85;;;;;;;22.81;56.10;101388.75;5114588;28;20110;-82
2023/09/05 02:11:04;;;;;;;4.65;2.13;;;;;;;22.88;56.27;101378.53;5109264;28;20069;-81
2023/09/05 02:13:58;;;;;;;2.63;1.95;;;;;;;23.19;55.14;101387.50;5109669;28;20043;-82
2023/09/05 02:16:52;;;;;;;4.25;2.20;;;;;;;23.33;54.41;101382.06;5099652;28;20059;-81
2023/09/05 02:19:47;;;;;;;6.63;2.40;;;;;;;23.49;53.75;101388.16;5110835;28;20039;-82
2023/09/05 02:22:44;;;;;;;6.18;2.28;;;;;;;23.59;53.42;101375.53;5097473;28;20054;-82
2023/09/05 02:25:39;;;;;;;10.18;2.58;;;;;;;23.62;52.58;101375.53;5118467;28;20038;-82
2023/09/05 02:28:34;;;;;;;5.88;2.13;;;;;;;23.65;52.26;101372.00;5122536;28;20051;-82
2023/09/05 02:31:24;;;;;;;11.43;2.03;;;;;;;23.59;51.65;101373.53;5116817;28;20050;-82
2023/09/05 02:34:18;;;;;;;4.40;2.13;;;;;;;23.65;51.17;101366.44;5117422;28;20047;-82
2023/09/05 02:37:13;;;;;;;3.00;1.83;;;;;;;23.67;51.00;101360.50;5125296;28;20560;-82
2023/09/05 02:40:07;;;;;;;3.63;2.08;;;;;;;23.70;50.08;101356.94;5122441;28;20047;-82
2023/09/05 02:43:02;;;;;;;4.80;2.50;;;;;;;23.71;49.40;101358.53;5120682;28;20055;-81
2023/09/05 02:45:54;;;;;;;3.53;1.83;;;;;;;23.72;49.44;101360.91;5120513;28;20046;-82
2023/09/05 02:48:49;;;;;;;2.90;1.88;;;;;;;23.71;49.53;101353.78;5121165;28;20043;-83
2023/09/05 02:51:41;;;;;;;25.88;5.60;;;;;;;23.69;47.65;101364.47;5086823;28;20050;-82
2023/09/05 02:54:36;;;;;;;45.95;10.60;;;;;;;23.77;47.25;101352.22;5105354;28;20047;-80
2023/09/05 02:57:30;;;;;;;58.47;12.95;;;;;;;23.72;47.85;101360.16;5090713;28;20040;-82
2023/09/05 03:00:23;;;;;;;28.27;6.53;;;;;;;23.75;46.58;101357.38;5109300;28;20044;-81
2023/09/05 03:03:17;;;;;;;25.10;6.30;;;;;;;23.71;46.53;101361.31;5107762;28;20055;-80
2023/09/05 03:06:17;;;;;;;25.77;5.72;;;;;;;23.78;46.38;101353.81;5126216;28;20043;-81
2023/09/05 03:09:09;;;;;;;29.48;9.93;;;;;;;23.72;46.13;101355.34;5109638;28;20411;-86
2023/09/05 03:12:03;;;;;;;20.02;4.80;;;;;;;23.77;45.91;101357.75;5108510;28;20056;-84
2023/09/05 03:14:58;;;;;;;7.78;3.25;;;;;;;23.78;45.76;101358.56;5117330;28;20429;-85
2023/09/05 03:17:50;;;;;;;;;;;;;;;23.75;45.32;101356.56;5135105;28;20050;-85
2023/09/05 03:20:42;;;;;;;5.85;2.55;;;;;;;23.70;45.61;101354.16;5115606;28;19912;-84
2023/09/05 03:23:36;;;;;;;10.20;3.13;;;;;;;23.70;45.57;101356.94;5130632;28;20050;-84
2023/09/05 03:26:29;;;;;;;;;;;;;;;23.63;45.79;101354.91;5128745;28;20046;-84
2023/09/05 03:29:25;;;;;;;5.40;2.20;;;;;;;23.51;45.93;101355.25;5117378;28;19912;-84
2023/09/05 03:32:17;;;;;;;5.60;2.42;;;;;;;23.57;45.91;101353.69;5101390;28;20042;-85
2023/09/05 03:35:10;;;;;;;6.28;1.55;;;;;;;23.65;46.20;101355.34;5133115;28;20042;-84
2023/09/05 03:38:05;;;;;;;7.32;2.03;;;;;;;23.65;45.68;101360.91;5119540;28;20062;-84
2023/09/05 03:40:59;;;;;;;4.80;2.00;;;;;;;23.62;45.91;101356.09;5113607;28;20034;-84
2023/09/05 03:43:48;;;;;;;3.67;1.65;;;;;;;23.69;45.72;101350.59;5132040;28;20051;-84
2023/09/05 03:46:40;;;;;;;8.73;1.73;;;;;;;23.74;45.76;101341.88;5126771;28;20110;-84
2023/09/05 03:49:32;;;;;;;4.15;1.70;;;;;;;23.84;45.93;101346.69;5126193;28;20118;-84
2023/09/05 03:52:26;;;;;;;5.55;1.42;;;;;;;23.95;46.69;101340.38;5112831;28;20118;-84
2023/09/05 03:55:19;;;;;;;3.55;1.63;;;;;;;23.97;46.58;101349.16;5112843;28;20038;-83
2023/09/05 03:58:13;;;;;;;4.45;1.40;;;;;;;23.95;45.63;101351.50;5125760;28;20046;-84
2023/09/05 04:01:05;;;;;;;6.30;1.63;;;;;;;23.97;45.96;101346.38;5125427;28;20050;-84
2023/09/05 04:04:00;;;;;;;5.32;1.42;;;;;;;23.98;45.98;101345.16;5126487;28;20046;-84
2023/09/05 04:06:50;;;;;;;;;;;;;;;23.96;45.81;101353.91;5133618;27;20050;-84
2023/09/05 04:09:45;;;;;;;2.53;1.30;;;;;;;23.92;45.61;101355.06;5133428;28;20364;-84
2023/09/05 04:12:37;;;;;;;4.95;1.45;;;;;;;23.91;45.76;101345.16;5123738;28;20054;-84
2023/09/05 04:15:32;;;;;;;2.83;1.45;;;;;;;23.91;45.99;101345.94;5135365;28;20057;-84
2023/09/05 04:18:26;;;;;;;9.10;1.48;;;;;;;23.92;45.43;101349.53;5132167;28;20402;-84
2023/09/05 04:21:21;;;;;;;3.63;1.40;;;;;;;23.88;44.79;101341.94;5117895;28;20042;-84
2023/09/05 04:24:11;;;;;;;;;;;;;;;23.91;44.80;101347.91;5133576;28;20058;-84
2023/09/05 04:27:06;;;;;;;3.55;1.30;;;;;;;23.90;44.92;101349.09;5116591;28;19916;-84
2023/09/05 04:30:01;;;;;;;3.50;1.05;;;;;;;23.90;44.29;101349.91;5118722;28;20046;-84
2023/09/05 04:32:55;;;;;;;4.25;1.40;;;;;;;23.91;45.00;101347.91;5123974;28;20035;-84
2023/09/05 04:35:50;;;;;;;7.07;1.23;;;;;;;23.88;45.11;101347.50;5126945;28;20037;-84
2023/09/05 04:38:43;;;;;;;3.80;1.42;;;;;;;23.96;44.92;101351.13;5118090;28;20038;-84
2023/09/05 04:41:35;;;;;;;3.50;1.40;;;;;;;23.90;44.13;101357.44;5131393;28;20038;-84
2023/09/05 04:44:27;;;;;;;3.45;1.60;;;;;;;23.93;43.60;101359.41;5131019;28;20038;-84
2023/09/05 04:47:28;;;;;;;3.83;1.40;;;;;;;23.96;44.24;101358.66;5127179;28;20061;-84
2023/09/05 04:50:15;;;;;;;4.28;1.70;;;;;;;23.90;44.20;101365.78;5115960;28;20044;-84
2023/09/05 04:53:11;;;;;;;4.07;2.00;;;;;;;24.04;45.30;101365.81;5121016;28;20031;-84
2023/09/05 04:56:03;;;;;;;5.70;1.80;;;;;;;24.07;44.45;101368.63;5126003;28;20045;-84
2023/09/05 04:58:55;;;;;;;;;;;;;;;24.04;44.07;101365.81;5112949;28;20041;-83
2023/09/05 05:01:47;;;;;;;5.18;1.50;;;;;;;24.03;44.00;101369.78;5114810;28;19911;-84
2023/09/05 05:04:40;;;;;;;3.97;1.48;;;;;;;23.96;43.37;101367.78;5132649;28;20046;-84
2023/09/05 05:07:35;;;;;;;6.10;1.30;;;;;;;24.03;43.93;101367.00;5132876;28;20042;-84
2023/09/05 05:10:30;;;;;;;3.13;1.27;;;;;;;24.00;43.19;101370.56;5128407;28;20050;-84
2023/09/05 05:13:22;;;;;;;3.72;1.15;;;;;;;23.96;42.14;101358.66;5134702;28;20042;-84
2023/09/05 05:16:17;;;;;;;5.97;1.55;;;;;;;23.96;43.37;101370.56;5131299;28;20050;-83
2023/09/05 05:19:11;;;;;;;4.18;1.50;;;;;;;23.93;43.80;101378.88;5130324;28;20026;-84
2023/09/05 05:22:06;;;;;;;3.70;1.23;;;;;;;23.97;43.77;101376.94;5128723;28;20038;-83
2023/09/05 05:24:55;;;;;;;;;;;;;;;24.00;43.45;101378.91;5127097;28;20054;-83
2023/09/05 05:27:50;;;;;;;7.00;1.70;;;;;;;24.00;43.49;101385.28;5132225;28;19912;-83
2023/09/05 05:30:45;;;;;;;5.57;1.67;;;;;;;24.12;44.45;101389.69;5118061;28;20043;-83
2023/09/05 05:33:39;;;;;;;2.97;1.42;;;;;;;24.10;42.44;101386.50;5124401;28;20051;-83
2023/09/05 05:36:32;;;;;;;1.92;1.20;;;;;;;24.11;43.08;101391.69;5114176;28;20047;-83
2023/09/05 05:39:24;;;;;;;3.33;1.60;;;;;;;24.04;42.40;101391.63;5122664;28;20051;-83
2023/09/05 05:42:18;;;;;;;4.35;1.65;;;;;;;24.06;42.53;101392.06;5115504;28;20051;-83
2023/09/05 05:45:14;;;;;;;2.35;1.13;;;;;;;24.10;41.86;101398.41;5113468;28;20496;-83
2023/09/05 05:48:09;;;;;;;5.10;1.15;;;;;;;24.09;42.44;101393.22;5124764;28;20054;-83
2023/09/05 05:50:59;;;;;;;;;;;;;;;24.12;42.86;101404.38;5126511;28;20050;-84
2023/09/05 05:53:53;;;;;;;3.15;1.15;;;;;;;24.14;43.18;101403.97;5124538;28;19916;-84
2023/09/05 05:56:45;;;;;;;;;;;;;;;24.13;42.13;101402.38;5128921;28;20047;-84
2023/09/05 05:59:40;;;;;;;4.90;1.50;;;;;;;24.11;42.92;101399.22;5112894;28;19912;-83
2023/09/05 06:02:35;;;;;;;6.13;1.40;;;;;;;24.06;42.69;101394.03;5128387;28;20042;-83
2023/09/05 06:05:27;;;;;;;15.60;2.28;;;;;;;24.05;43.14;101400.78;5132916;28;20030;-83
2023/09/05 06:08:15;;;;;;;21.35;2.85;;;;;;;23.99;42.51;101405.09;5114288;28;20062;-85
2023/09/05 06:11:07;;;;;;;7.68;2.00;;;;;;;24.01;42.32;101406.31;5129867;28;20043;-85
2023/09/05 06:13:59;;;;;;;10.00;1.70;;;;;;;23.98;42.48;101397.94;5128858;28;20050;-84
2023/09/05 06:16:54;;;;;;;11.10;2.10;;;;;;;24.06;43.00;101405.16;5128509;28;20042;-85
2023/09/05 06:19:46;;;;;;;14.30;1.40;;;;;;;24.11;42.98;101413.09;5138583;28;20046;-85
2023/09/05 06:22:38;;;;;;;7.00;2.00;;;;;;;24.12;42.46;101411.94;5130218;28;20064;-85
2023/09/05 06:25:30;;;;;;;3.42;1.52;;;;;;;24.12;42.18;101415.50;5127346;28;20052;-85
2023/09/05 06:28:24;;;;;;;3.63;1.45;;;;;;;24.08;42.08;101417.44;5123203;28;20054;-85
2023/09/05 06:31:19;;;;;;;5.03;1.60;;;;;;;24.03;41.70;101411.47;5132662;28;20050;-86
2023/09/05 06:34:11;;;;;;;;;;;;;;;24.06;42.52;101413.47;5136697;28;20047;-86
2023/09/05 06:37:06;;;;;;;5.05;1.27;;;;;;;24.07;42.21;101424.22;5128504;28;20306;-85
2023/09/05 06:40:01;;;;;;;3.85;1.38;;;;;;;24.07;42.08;101409.53;5120850;28;20039;-86
2023/09/05 06:42:55;;;;;;;6.78;1.50;;;;;;;23.96;41.90;101422.56;5109242;28;20046;-86
2023/09/05 06:45:45;;;;;;;;;;;;;;;23.94;43.34;101422.16;5123211;28;20046;-87
2023/09/05 06:48:39;;;;;;;4.68;1.60;;;;;;;23.93;42.14;101424.13;5126962;28;19915;-87
2023/09/05 06:51:31;;;;;;;3.00;1.60;;;;;;;23.89;42.68;101426.09;5129979;28;20059;-84
2023/09/05 06:54:26;;;;;;;3.58;1.42;;;;;;;23.81;42.58;101430.03;5132610;28;20054;-84
2023/09/05 06:57:20;;;;;;;2.70;1.40;;;;;;;23.86;43.41;101435.22;5131370;28;20049;-84
2023/09/05 07:00:14;;;;;;;3.72;2.03;;;;;;;23.84;42.62;101435.59;5130899;28;20061;-84
2023/09/05 07:03:06;;;;;;;10.05;1.52;;;;;;;23.87;43.85;101432.03;5130702;28;20606;-85
2023/09/05 07:06:03;;;;;;;3.92;1.70;;;;;;;23.81;42.81;101439.16;5126663;28;20046;-85
2023/09/05 07:08:57;;;;;;;6.07;1.35;;;;;;;23.86;43.28;101438.00;5131271;28;20034;-84
2023/09/05 07:11:52;;;;;;;3.25;1.52;;;;;;;23.90;43.49;101446.34;5125347;28;20051;-83
2023/09/05 07:14:46;;;;;;;3.95;1.20;;;;;;;23.96;44.26;101434.47;5132561;28;20042;-83
2023/09/05 07:17:41;;;;;;;3.08;1.33;;;;;;;23.99;43.75;101439.25;5129409;28;20066;-83
2023/09/05 07:20:36;;;;;;;6.35;1.48;;;;;;;24.06;44.29;101430.97;5129544;28;20042;-83
2023/09/05 07:23:30;;;;;;;3.20;1.50;;;;;;;24.09;44.26;101429.38;5129966;28;20049;-83
2023/09/05 07:26:23;;;;;;;2.53;1.33;;;;;;;24.11;43.91;101435.34;5129336;28;20069;-83
2023/09/05 07:29:17;;;;;;;3.17;1.15;;;;;;;24.12;45.17;101431.38;5132432;28;20047;-83
2023/09/05 07:32:12;;;;;;;10.10;1.80;;;;;;;24.11;42.98;101441.69;5130428;28;20047;-83
2023/09/05 07:35:04;;;;;;;13.38;2.35;;;;;;;24.11;44.69;101446.47;5130869;28;20050;-83
2023/09/05 07:37:59;;;;;;;2.50;0.88;;;;;;;24.10;43.39;101442.88;5128517;28;20046;-83
2023/09/05 07:40:51;;;;;;;3.15;1.50;;;;;;;24.13;44.72;101446.84;5117921;28;20611;-84
2023/09/05 07:43:45;;;;;;;2.15;1.58;;;;;;;24.19;45.66;101450.88;5129940;28;20052;-83
2023/09/05 07:46:38;;;;;;;;;;;;;;;24.19;43.89;101446.13;5130621;28;20054;-83
2023/09/05 07:49:36;;;;;;;3.92;1.33;;;;;;;24.18;43.00;101444.53;5129428;28;19911;-83
2023/09/05 07:52:31;;;;;;;2.50;1.40;;;;;;;24.20;45.10;101458.03;5131510;28;20042;-84
2023/09/05 07:55:25;;;;;;;10.68;1.27;;;;;;;24.13;42.57;101452.41;5128704;28;20050;-83
2023/09/05 07:58:20;;;;;;;2.58;1.15;;;;;;;24.19;44.48;101456.44;5129979;28;20062;-83
2023/09/05 08:01:12;;;;;;;2.63;1.20;;;;;;;24.20;44.55;101463.59;5116285;28;20038;-83
2023/09/05 08:04:07;;;;;;;3.35;1.23;;;;;;;24.28;44.80;101459.66;5120348;28;20049;-83
2023/09/05 08:07:02;;;;;;;4.75;1.25;;;;;;;24.31;43.80;101469.22;5130068;28;20406;-83
2023/09/05 08:09:56;;;;;;;5.47;1.00;;;;;;;24.29;43.91;101467.63;5129055;28;20042;-83
2023/09/05 08:12:51;;;;;;;6.25;1.10;;;;;;;24.35;42.05;101465.25;5132945;28;20051;-83
2023/09/05 08:15:46;;;;;;;2.72;1.20;;;;;;;24.42;43.51;101470.06;5115520;28;20042;-83
2023/09/05 08:18:41;;;;;;;2.75;1.40;;;;;;;24.41;41.50;101463.69;5127846;28;20042;-83
2023/09/05 08:21:33;;;;;;;4.20;1.30;;;;;;;24.51;43.43;101474.06;5127963;28;20050;-83
2023/09/05 08:24:28;;;;;;;4.32;1.73;;;;;;;24.56;43.62;101458.97;5129371;28;20046;-83
2023/09/05 08:27:28;;;;;;;8.30;1.70;;;;;;;24.59;41.68;101466.53;5132057;28;20066;-83
2023/09/05 08:30:23;;;;;;;3.65;1.55;;;;;;;24.68;42.76;101462.22;5127816;28;20050;-83
2023/09/05 08:33:19;;;;;;;4.80;1.58;;;;;;;24.77;42.55;101466.59;5113315;28;20039;-83
2023/09/05 08:36:14;;;;;;;3.03;1.50;;;;;;;24.82;40.13;101460.66;5115861;28;20047;-83
2023/09/05 08:39:09;;;;;;;4.20;1.35;;;;;;;24.82;40.41;101461.44;5127378;28;20047;-83
2023/09/05 08:42:07;;;;;;;12.70;1.65;;;;;;;24.76;37.95;101462.22;5131790;28;20042;-83
2023/09/05 08:45:04;;;;;;;7.32;1.98;;;;;;;24.81;38.80;101464.63;5114768;28;20509;-83
2023/09/05 08:47:59;;;;;;;3.45;1.30;;;;;;;24.83;38.76;101467.81;5128784;28;20045;-83
2023/09/05 08:50:54;;;;;;;6.70;1.60;;;;;;;24.77;38.17;101483.28;5128426;28;20054;-83
2023/09/05 08:53:51;;;;;;;3.80;1.20;;;;;;;24.75;38.02;101480.09;5129630;28;20065;-83
2023/09/05 08:56:46;;;;;;;5.32;1.35;;;;;;;24.69;38.74;101476.91;5131202;28;20042;-83
2023/09/05 08:59:40;;;;;;;3.60;1.25;;;;;;;24.62;39.40;101480.47;5114319;28;20042;-83
2023/09/05 09:02:36;;;;;;;8.40;1.55;;;;;;;24.62;37.66;101469.34;5127597;28;20046;-83
2023/09/05 09:05:30;;;;;;;3.63;1.98;;;;;;;24.59;37.57;101474.88;5130081;28;20042;-83
2023/09/05 09:08:22;;;;;;;4.75;1.23;;;;;;;24.67;37.46;101470.94;5128899;28;20046;-83
2023/09/05 09:11:16;;;;;;;1.50;1.10;;;;;;;24.67;37.00;101474.53;5127431;28;20043;-83
2023/09/05 09:14:08;;;;;;;10.27;1.50;;;;;;;24.73;38.03;101480.50;5128515;28;20041;-83
2023/09/05 09:17:03;;;;;;;5.00;1.33;;;;;;;24.71;37.78;101477.31;5128182;28;20414;-83
2023/09/05 09:19:58;;;;;;;2.20;1.20;;;;;;;24.67;37.44;101476.50;5128820;28;20051;-83
2023/09/05 09:22:53;;;;;;;2.60;1.55;;;;;;;24.59;37.63;101470.13;5127476;28;20046;-83
2023/09/05 09:25:52;;;;;;;3.83;1.63;;;;;;;24.67;38.06;101466.19;5128748;28;20532;-83
2023/09/05 09:28:46;;;;;;;3.75;1.10;;;;;;;24.73;38.76;101465.78;5127568;28;20054;-83
2023/09/05 09:31:42;;;;;;;;;;;;;;;24.77;37.23;101469.38;5128118;28;20043;-83
2023/09/05 09:34:39;;;;;;;4.07;1.85;;;;;;;24.68;36.56;101472.53;5115318;28;20365;-83
2023/09/05 09:37:35;;;;;;;7.93;1.77;;;;;;;24.70;37.16;101470.94;5112480;28;20054;-84
2023/09/05 09:40:36;;;;;;;1.52;1.00;;;;;;;24.78;38.59;101469.00;5130017;28;20058;-84
2023/09/05 09:43:29;;;;;;;3.65;1.40;;;;;;;24.80;35.55;101471.38;5128329;28;20051;-83
2023/09/05 09:46:24;;;;;;;2.55;1.33;;;;;;;24.84;35.72;101466.63;5135819;28;20043;-83
2023/09/05 09:49:16;;;;;;;1.33;1.10;;;;;;;24.84;36.12;101472.19;5133587;28;20050;-83
2023/09/05 09:52:12;;;;;;;2.90;1.48;;;;;;;24.75;34.36;101460.63;5117237;28;20047;-83
2023/09/05 09:55:11;;;;;;;3.20;1.85;;;;;;;24.74;34.35;101464.63;5135135;28;20053;-83
2023/09/05 09:58:10;;;;;;;5.43;1.58;;;;;;;24.91;33.59;101459.09;5131756;28;20109;-83
2023/09/05 10:01:04;;;;;;;2.90;1.73;;;;;;;25.13;34.20;101454.38;5132591;28;20047;-83
2023/09/05 10:04:00;;;;;;;2.78;1.52;;;;;;;25.30;33.58;101450.78;5131134;28;20046;-83
2023/09/05 10:06:56;;;;;;;2.75;1.73;;;;;;;25.50;33.81;101442.81;5130879;28;20509;-83
2023/09/05 10:09:51;;;;;;;3.25;1.70;;;;;;;25.61;33.62;101445.63;5119299;28;20046;-83
2023/09/05 10:12:45;;;;;;;7.07;1.30;;;;;;;25.76;34.05;101447.19;5110670;28;20047;-83
2023/09/05 10:15:41;;;;;;;4.97;1.73;;;;;;;25.77;34.51;101443.19;5110770;28;20047;-83
2023/09/05 10:18:39;;;;;;;4.00;1.23;;;;;;;25.63;35.28;101432.09;5111753;28;20051;-83
2023/09/05 10:21:36;;;;;;;16.25;1.50;;;;;;;25.54;35.13;101430.50;5124290;28;20043;-83
2023/09/05 10:24:33;;;;;;;4.00;1.83;;;;;;;25.74;37.25;101432.88;5124351;28;20050;-83
2023/09/05 10:27:27;;;;;;;3.28;1.60;;;;;;;25.73;34.66;101425.69;5111088;28;20046;-83
2023/09/05 10:30:23;;;;;;;9.07;1.73;;;;;;;26.04;32.79;101426.81;5110162;28;20051;-83
2023/09/05 10:33:18;;;;;;;2.75;1.70;;;;;;;26.23;32.21;101420.78;5127958;28;20047;-83
2023/09/05 10:36:06;;;;;;;3.33;1.60;;;;;;;25.98;36.11;101421.66;5106244;28;20051;-83
2023/09/05 10:39:17;;;;;;;6.53;1.45;;;;;;;26.22;32.84;101414.41;5120487;28;20047;-82
2023/09/05 10:42:13;;;;;;;2.53;1.33;;;;;;;26.41;32.22;101407.56;5118086;28;20035;-83
2023/09/05 10:45:29;;;;;;;7.15;2.03;;;;;;;26.54;32.36;101402.31;5122195;28;20433;-82
2023/09/05 10:48:42;;;;;;;11.82;1.35;;;;;;;26.63;31.46;101402.63;5121670;27;20118;-83
2023/09/05 10:51:37;;;;;;;5.43;1.45;;;;;;;26.87;31.90;101400.94;5124527;28;20054;-83
2023/09/05 10:54:32;;;;;;;2.75;1.55;;;;;;;26.86;30.81;101396.53;5129827;28;20406;-83
2023/09/05 10:57:42;;;;;;;2.85;1.30;;;;;;;26.98;31.94;101393.25;5115982;28;20067;-83
2023/09/05 11:00:40;;;;;;;6.82;1.80;;;;;;;26.95;32.39;101394.88;5128160;28;20054;-83
2023/09/05 11:03:37;;;;;;;3.25;1.48;;;;;;;26.78;31.12;101387.38;5130455;28;20690;-83
2023/09/05 11:06:31;;;;;;;4.13;1.30;;;;;;;26.94;30.31;101373.75;5129921;28;20050;-83
2023/09/05 11:09:29;;;;;;;2.95;1.63;;;;;;;26.92;30.17;101372.56;5129605;28;20055;-83
2023/09/05 11:12:24;;;;;;;4.40;1.58;;;;;;;26.97;30.06;101370.13;5125964;28;20043;-83
2023/09/05 11:15:16;;;;;;;;;;;;;;;27.09;30.11;101372.41;5113772;28;20055;-82
2023/09/05 11:18:09;;;;;;;3.40;1.63;;;;;;;27.15;30.29;101369.97;5118318;28;19911;-82
2023/09/05 11:21:01;;;;;;;6.78;1.50;;;;;;;27.37;30.32;101363.00;5095337;28;20047;-83
2023/09/05 11:23:58;;;;;;;3.45;1.35;;;;;;;27.50;30.66;101360.47;5119093;28;20046;-83
2023/09/05 11:26:48;;;;;;;3.42;1.67;;;;;;;27.51;29.25;101353.69;5129920;28;20100;-87
2023/09/05 11:29:43;;;;;;;2.20;1.55;;;;;;;27.40;31.18;101350.97;5116391;28;20054;-83
2023/09/05 11:32:39;;;;;;;;;;;;;;;27.53;30.14;101352.06;5130470;28;20059;-83
2023/09/05 11:35:35;;;;;;;3.08;1.52;;;;;;;27.53;29.50;101340.09;5124434;28;20252;-84
2023/09/05 11:38:27;;;;;;;2.17;1.25;;;;;;;27.55;29.52;101355.22;5111092;28;20051;-82
2023/09/05 11:41:22;;;;;;;2.15;1.40;;;;;;;27.62;31.08;101351.56;5122810;28;20057;-83
2023/09/05 11:44:14;;;;;;;;;;;;;;;27.83;30.84;101345.75;5121366;28;20038;-83
2023/09/05 11:47:09;;;;;;;3.83;1.63;;;;;;;27.69;29.91;101343.09;5126134;28;19916;-82
2023/09/05 11:50:04;;;;;;;2.72;1.70;;;;;;;27.62;30.10;101343.19;5126569;28;20046;-82
2023/09/05 11:52:56;;;;;;;4.85;1.38;;;;;;;27.87;29.68;101335.31;5112058;28;20390;-83
2023/09/05 11:55:50;;;;;;;2.22;1.40;;;;;;;27.81;29.82;101336.16;5114408;28;20063;-83
2023/09/05 11:58:45;;;;;;;2.17;1.35;;;;;;;27.70;29.90;101333.50;5123893;28;20035;-83
2023/09/05 12:01:35;;;;;;;5.18;1.80;;;;;;;27.46;32.46;101328.97;5123469;28;20047;-82
2023/09/05 12:04:34;;;;;;;2.60;1.40;;;;;;;27.31;32.80;101319.94;5123303;28;20042;-82
2023/09/05 12:07:32;;;;;;;1.70;1.23;;;;;;;27.52;31.35;101310.56;5120178;28;20054;-83
2023/09/05 12:10:26;;;;;;;1.70;1.20;;;;;;;27.82;31.02;101321.00;5123691;28;20050;-83
2023/09/05 12:13:18;;;;;;;4.28;1.88;;;;;;;27.88;30.44;101317.31;5119709;28;20050;-82
2023/09/05 12:16:17;;;;;;;2.28;1.40;;;;;;;27.98;30.28;101305.19;5123151;28;20517;-83
2023/09/05 12:19:09;;;;;;;5.68;1.30;;;;;;;27.88;30.88;101308.13;5116918;28;20039;-81
2023/09/05 12:22:01;;;;;;;;;;;;;;;27.94;30.63;101310.03;5111624;28;20504;-80
2023/09/05 12:25:08;;;;;;;3.60;1.38;;;;;;;27.99;31.18;101301.16;5126423;28;19912;-83
2023/09/05 12:28:20;;;;;;;2.15;1.42;;;;;;;27.90;30.95;101288.91;5127824;28;20047;-83
2023/09/05 12:31:15;;;;;;;2.08;1.40;;;;;;;27.82;29.96;101296.63;5127125;28;20058;-83
2023/09/05 12:34:10;;;;;;;2.85;1.33;;;;;;;28.01;29.96;101279.19;5118189;27;20038;-82
2023/09/05 12:37:03;;;;;;;3.17;1.60;;;;;;;27.88;31.77;101274.59;5130798;27;20055;-81
2023/09/05 12:39:56;;;;;;;5.50;1.25;;;;;;;27.81;30.92;101271.88;5105205;28;20044;-82
2023/09/05 12:42:51;;;;;;;1.90;1.50;;;;;;;27.93;30.93;101269.31;5112169;28;20050;-84
2023/09/05 12:45:43;;;;;;;;;;;;;;;27.93;31.05;101257.34;5121784;28;20042;-83
2023/09/05 12:48:38;;;;;;;2.38;1.50;;;;;;;27.98;30.69;101252.06;5115591;28;19912;-83
2023/09/05 12:51:27;;;;;;;;;;;;;;;27.91;29.89;101249.38;5130275;28;20092;-83
2023/09/05 12:54:22;;;;;;;2.05;1.20;;;;;;;28.08;31.31;101236.34;5125603;27;19912;-84
2023/09/05 12:57:17;;;;;;;2.28;1.10;;;;;;;28.19;29.59;101239.78;5119711;28;20033;-83
2023/09/05 13:00:11;;;;;;;1.88;1.33;;;;;;;28.01;32.43;101247.63;5121621;28;20050;-83
2023/09/05 13:03:07;;;;;;;5.18;1.65;;;;;;;28.13;31.64;101240.69;5106956;28;20043;-83
2023/09/05 13:06:01;;;;;;;7.10;1.70;;;;;;;28.23;31.53;101239.75;5126524;28;20047;-82
2023/09/05 13:08:53;;;;;;;;;;;;;;;27.97;32.98;101241.31;5121843;28;20042;-83
2023/09/05 13:11:45;;;;;;;3.85;1.40;;;;;;;27.99;31.35;101239.66;5117083;28;20338;-83
2023/09/05 13:14:35;;;;;;;4.43;1.30;;;;;;;27.97;32.99;101235.72;5109193;28;20047;-83
2023/09/05 13:17:29;;;;;;;4.68;1.65;;;;;;;27.82;32.52;101229.53;5119053;28;20055;-82
2023/09/05 13:20:21;;;;;;;;;;;;;;;27.73;33.21;101226.47;5107056;28;20043;-82
2023/09/05 13:23:16;;;;;;;1.83;1.17;;;;;;;27.85;32.42;101234.28;5124977;28;19915;-83
2023/09/05 13:26:11;;;;;;;4.25;1.65;;;;;;;27.91;33.06;101229.00;5119662;28;20117;-83
2023/09/05 13:29:05;;;;;;;4.90;1.55;;;;;;;27.89;30.13;101229.41;5124016;28;20030;-83
2023/09/05 13:31:58;;;;;;;3.70;1.52;;;;;;;28.07;32.13;101229.97;5118247;28;20051;-83
2023/09/05 13:34:52;;;;;;;2.67;1.75;;;;;;;27.95;32.55;101215.75;5120519;28;20042;-83
2023/09/05 13:37:44;;;;;;;;;;;;;;;27.88;33.44;101222.25;5130096;28;20054;-84